Milesville, South Dakota
Current Conditions -  °F | °C
As of 10:55 PM on Tuesday 27 Jan 2015 (Local Time) from KPHP Reporting Station
Clear Clear  
Wind Chill: 41°   Ceiling: Unl
Heat Index: 41°   Visibility: 10mi
Dew Point: 30°   Wind: 3mph
Humidity: 65%   Direction: 290°WNW
Pressure: 29.77"   Gusts: NA
Location:  44.46°N, 101.68°W
Report Text: KPHP 280555Z AUTO 29003KT 10SM CLR 05/M01 A2977 RMK AO2 SLP077 T00501011 10144 20028 56014
Loading
Personal Weather Stations






























Interactive Weather Map New forecast layout! Learn more

10-Day Weather Forecast

Advertisements
Track Severe Weather on mobile